SLRY  Reyes Airport

Add Bookmark

Reyes, Bolivia

Status IATA
Operational REY
Latitude Longitude
14° 18' 15" S 67° 21' 12" W
-14.304400 -67.353401
Local (DST -4) UTC (GMT -4)
Nov 23, 2014 12:26 Nov 23, 2014 04:26
Sunrise-Sunset Local UTC
Begin Civil Twilight 05:26 09:26
Sunrise 05:49 09:49
Sunset 06:42 22:42
End Civil Twilight 07:05 23:05

Current Weather

METAR Observed VFR
SLRY 222200Z 34006KT 9999 FEW020 SCT200 32/23 Q1007 Sat, Nov 22, 2014 @ 22:00 UTC
(6 Hours, 26 Minutes ago)
Visual Flight Rules
Wind Visibility Clouds Conditions
340° at 6 knots (11 kph) 10 km or more
  • Few at 2,000' AGL
  • Scattered at 20,000' AGL
  • No significant weather
Temperatures Readings Precipitation
Current Temp 32°C (90°F)
Dewpoint 23°C (73°F)
Heat Index 37°C (99°F)
Humidity 59%
Altimeter 29.73"Hg
Sea Level Pressure 1007mb
Field Elevation 918.64'
None Recorded

Additional weather within a 92.6km radius of SLRY

Map ICAO Location
SLRQ 20.7km S (229°)

24 Hour Weather History

Loading
-

24 Hour Weather Graphs

Loading
-

CheckWX.com is intended as a tool to help pilots better visualize weather data. It is not intended as a substitute for an official weather briefing obtained from a Flight Service Station. CheckWX.com does not meet the FAA requirements for an official pre-flight weather briefing. Therefore, it's important that pilots still call and obtain an official FSS pre-flight weather briefing.